Airport View

Enter AWOS ICAO identifier for current METAR.

ex. KFNL

KCWA 251720Z AUTO 30004KT 7SM BKN047 BKN050 00/M05 A3030 RMK AO2

25 Oct 2020 17:18

Frequency: 127.45

Phone: 715-693-1116

Other Area AWOS: KAUW - KSTE - KMFI - KRRL

TAF KCWA 251120Z 2512/2612 36004KT P6SM -SHSN BKN050 OVC080 FM252000 34004KT 5SM -SHSN OVC022 FM252100 34004KT 2SM -SHSN OVC013 FM260000 34004KT 3SM -SHSN OVC014 FM260400 34005KT 3SM -SHSN OVC009 FM260800 33005KT P6SM -SHSN BKN015 OVC035